Flight Briefing for CPX306

Departure Arrival
Chicago/Rockford International Airport (KRFD)
Click to view FAA NOTAMS
Seattle-Tacoma International Airport (KSEA)
Click to view FAA NOTAMS
Departure Time Arrival Time
N/A N/A
Aircraft Distance
B767-300BDSF 1684nm
Departure METAR Arrival METAR
KRFD 230654Z 22004KT 10SM BKN038 OVC100 19/18 A2987 RMK AO2 RAE12 TSE0557 SLP110 P0000 T01890178 $ KSEA 230653Z 18005KT 10SM BKN130 16/12 A3004 RMK AO2 SLP178 T01610117
Suggested Route
RFD COTON J30 ODI KP90G KP09A DIK KU15Q GEG GLASR1


View recent IFR Routes data
Notes



Charts and Procedures

Charts for KRFD
No chart available
Charts for KSEA
No chart available

Windy.com Weather Map